createdAt,value
2022-08-22T00:04:10.098Z,0
2022-08-22T00:09:10.095Z,0
2022-08-22T00:14:10.120Z,0
2022-08-22T00:19:12.026Z,0
2022-08-22T00:24:16.274Z,0
2022-08-22T00:29:10.190Z,0
2022-08-22T00:34:10.101Z,0
2022-08-22T00:39:10.085Z,0
2022-08-22T00:44:10.085Z,0
2022-08-22T00:49:10.116Z,0
2022-08-22T00:54:11.403Z,0
2022-08-22T00:59:22.689Z,0
2022-08-22T01:04:10.107Z,0
2022-08-22T01:09:10.093Z,0
2022-08-22T01:14:10.082Z,0
2022-08-22T01:19:10.098Z,0
2022-08-22T01:24:10.128Z,0
2022-08-22T01:29:10.522Z,0
2022-08-22T01:34:11.289Z,0
2022-08-22T01:39:10.199Z,0
2022-08-22T01:44:10.150Z,0
2022-08-22T01:49:10.162Z,0
2022-08-22T01:54:10.219Z,0
2022-08-22T01:59:11.130Z,0
2022-08-22T02:04:10.136Z,0
2022-08-22T02:09:10.178Z,0
2022-08-22T02:14:10.135Z,0
2022-08-22T02:19:10.180Z,0
2022-08-22T02:24:10.220Z,0
2022-08-22T02:29:10.147Z,0
2022-08-22T02:34:10.163Z,0
2022-08-22T02:39:10.250Z,0
2022-08-22T02:44:10.171Z,0
2022-08-22T02:49:10.109Z,0
2022-08-22T02:54:10.197Z,0
2022-08-22T02:59:10.164Z,0
2022-08-22T03:04:10.175Z,0
2022-08-22T03:09:10.100Z,0
2022-08-22T03:14:10.194Z,0
2022-08-22T03:19:13.261Z,0
2022-08-22T03:24:10.182Z,0
2022-08-22T03:29:10.156Z,0
2022-08-22T03:34:10.181Z,0
2022-08-22T03:39:16.490Z,0
2022-08-22T03:44:10.176Z,0
2022-08-22T03:49:10.173Z,0
2022-08-22T03:54:10.165Z,0
2022-08-22T03:59:10.400Z,0
2022-08-22T04:04:10.171Z,0
2022-08-22T04:09:10.169Z,0
2022-08-22T04:14:10.166Z,259
2022-08-22T04:19:10.152Z,260
2022-08-22T04:24:10.153Z,262
2022-08-22T04:29:10.182Z,264
2022-08-22T04:34:10.247Z,270
2022-08-22T04:39:10.172Z,272
2022-08-22T04:44:10.176Z,290
2022-08-22T04:49:10.160Z,299
2022-08-22T04:54:10.181Z,309
2022-08-22T04:59:15.377Z,324
2022-08-22T05:04:10.205Z,331
2022-08-22T05:09:14.195Z,336
2022-08-22T05:14:10.168Z,357
2022-08-22T05:19:13.179Z,376
2022-08-22T05:24:10.231Z,384
2022-08-22T05:29:10.210Z,387
2022-08-22T05:34:10.198Z,395
2022-08-22T05:39:10.204Z,413
2022-08-22T05:44:10.186Z,421
2022-08-22T05:49:10.198Z,426
2022-08-22T05:54:10.488Z,430
2022-08-22T05:59:10.218Z,438
2022-08-22T06:04:10.223Z,447
2022-08-22T06:09:10.245Z,451
2022-08-22T06:14:10.177Z,456
2022-08-22T06:19:19.142Z,464
2022-08-22T06:24:10.185Z,473
2022-08-22T06:29:10.257Z,484
2022-08-22T06:34:10.288Z,503
2022-08-22T06:39:10.257Z,503
2022-08-22T06:44:10.206Z,505
2022-08-22T06:49:10.243Z,516
2022-08-22T06:54:10.308Z,525
2022-08-22T06:59:10.351Z,527
2022-08-22T07:04:10.223Z,531
2022-08-22T07:09:10.205Z,539
2022-08-22T07:14:10.194Z,556
2022-08-22T07:19:10.243Z,568
2022-08-22T07:24:10.269Z,582
2022-08-22T07:29:11.508Z,604
2022-08-22T07:34:10.394Z,632
2022-08-22T07:39:11.119Z,665
2022-08-22T07:44:10.259Z,712
2022-08-22T07:49:12.408Z,758
2022-08-22T07:54:10.251Z,823
2022-08-22T07:59:12.770Z,910
2022-08-22T08:04:10.270Z,1008
2022-08-22T08:09:10.245Z,1093
2022-08-22T08:14:10.312Z,1126
2022-08-22T08:19:10.263Z,1081
2022-08-22T08:24:10.232Z,1192
2022-08-22T08:29:10.242Z,1170
2022-08-22T08:34:10.248Z,1503
2022-08-22T08:39:10.335Z,1739
2022-08-22T08:44:10.242Z,2122
2022-08-22T08:49:10.278Z,14620
2022-08-22T08:54:10.283Z,13296
2022-08-22T08:59:10.503Z,13158
2022-08-22T09:04:14.945Z,8709
2022-08-22T09:14:10.265Z,6354
2022-08-22T09:19:10.275Z,6236
2022-08-22T09:24:10.288Z,8605
2022-08-22T09:29:10.303Z,9706
2022-08-22T09:34:10.239Z,2123
2022-08-22T09:39:10.227Z,9489
2022-08-22T09:44:12.101Z,12548
2022-08-22T09:49:10.289Z,13400
2022-08-22T09:54:10.356Z,12014
2022-08-22T09:59:10.497Z,12238
2022-08-22T10:04:10.300Z,1811
2022-08-22T10:09:10.542Z,12331
2022-08-22T10:14:10.284Z,12840
2022-08-22T10:19:10.350Z,12042
2022-08-22T10:24:10.365Z,14443
2022-08-22T10:29:10.277Z,15875
2022-08-22T10:34:10.310Z,13318
2022-08-22T10:39:11.710Z,12391
2022-08-22T10:44:10.854Z,12644
2022-08-22T10:49:10.308Z,12446
2022-08-22T10:54:10.672Z,13190
2022-08-22T10:59:10.419Z,13025
2022-08-22T11:04:12.164Z,12396
2022-08-22T11:09:10.467Z,8068
2022-08-22T11:14:10.314Z,11090
2022-08-22T11:19:14.861Z,3068
2022-08-22T11:24:17.344Z,1524
2022-08-22T11:29:13.902Z,1511
2022-08-22T11:34:10.351Z,1503
2022-08-22T11:39:13.803Z,1571
2022-08-22T11:44:10.292Z,1371
2022-08-22T11:49:10.317Z,1184
2022-08-22T11:54:10.283Z,888
2022-08-22T11:59:10.375Z,956
2022-08-22T12:04:10.324Z,648
2022-08-22T12:09:10.405Z,1030
2022-08-22T12:14:10.366Z,1013
2022-08-22T12:19:10.638Z,1226
2022-08-22T12:24:19.483Z,1227
2022-08-22T12:29:15.023Z,1011
2022-08-22T12:34:10.349Z,857
2022-08-22T12:39:10.620Z,841
2022-08-22T12:44:12.645Z,954
2022-08-22T12:49:10.397Z,650
2022-08-22T12:54:10.323Z,1073
2022-08-22T12:59:10.515Z,1008
2022-08-22T13:04:10.433Z,1140
2022-08-22T13:09:10.472Z,894
2022-08-22T13:14:15.643Z,1002
2022-08-22T13:19:13.625Z,949
2022-08-22T13:24:10.817Z,1105
2022-08-22T13:29:25.508Z,1006
2022-08-22T13:34:10.364Z,1032
2022-08-22T13:39:10.375Z,1058
2022-08-22T13:44:10.361Z,1025
2022-08-22T13:49:10.432Z,1018
2022-08-22T13:54:10.751Z,1082
2022-08-22T13:59:10.423Z,997
2022-08-22T14:04:17.492Z,814
2022-08-22T14:09:10.459Z,815
2022-08-22T14:14:10.494Z,1098
2022-08-22T14:19:10.976Z,1183
2022-08-22T14:24:10.406Z,1201
2022-08-22T14:29:10.383Z,1189
2022-08-22T14:34:10.377Z,1169
2022-08-22T14:39:10.410Z,1207
2022-08-22T14:44:10.366Z,1210
2022-08-22T14:49:10.611Z,1115
2022-08-22T14:54:10.407Z,1127
2022-08-22T15:04:10.414Z,1027
2022-08-22T15:09:10.386Z,1015
2022-08-22T15:14:12.730Z,985
2022-08-22T15:19:10.395Z,903
2022-08-22T15:24:10.415Z,828
2022-08-22T15:29:10.413Z,1029
2022-08-22T15:34:10.471Z,789
2022-08-22T15:39:10.438Z,732
2022-08-22T15:44:14.824Z,678
2022-08-22T15:49:10.569Z,646
2022-08-22T15:54:13.225Z,642
2022-08-22T15:59:10.434Z,631
2022-08-22T16:04:10.405Z,1016
2022-08-22T16:09:10.471Z,867
2022-08-22T16:14:10.424Z,509
2022-08-22T16:19:10.451Z,476
2022-08-22T16:24:10.476Z,582
2022-08-22T16:29:13.593Z,545
2022-08-22T16:34:10.458Z,542
2022-08-22T16:39:10.400Z,674
2022-08-22T16:44:10.448Z,659
2022-08-22T16:49:10.442Z,657
2022-08-22T16:54:10.441Z,629
2022-08-22T16:59:22.761Z,606
2022-08-22T17:04:10.481Z,578
2022-08-22T17:09:10.466Z,526
2022-08-22T17:14:10.675Z,477
2022-08-22T17:19:10.504Z,424
2022-08-22T17:24:11.692Z,396
2022-08-22T17:29:10.447Z,369
2022-08-22T17:34:10.508Z,342
2022-08-22T17:39:10.442Z,326
2022-08-22T17:44:10.449Z,317
2022-08-22T17:49:10.525Z,305
2022-08-22T17:54:10.460Z,298
2022-08-22T17:59:10.455Z,290
2022-08-22T18:04:10.478Z,285
2022-08-22T18:09:14.045Z,280
2022-08-22T18:14:10.504Z,274
2022-08-22T18:19:10.426Z,268
2022-08-22T18:24:10.498Z,264
2022-08-22T18:29:10.698Z,258
2022-08-22T18:34:10.515Z,256
2022-08-22T18:39:10.448Z,0
2022-08-22T18:44:10.494Z,0
2022-08-22T18:49:15.375Z,0
2022-08-22T18:54:10.486Z,0
2022-08-22T18:59:10.508Z,0
2022-08-22T19:04:10.500Z,0
2022-08-22T19:09:10.505Z,0
2022-08-22T19:14:10.504Z,0
2022-08-22T19:19:17.093Z,0
2022-08-22T19:24:10.563Z,0
2022-08-22T19:29:10.859Z,0
2022-08-22T19:34:10.492Z,0
2022-08-22T19:39:12.797Z,0
2022-08-22T19:44:10.484Z,0
2022-08-22T19:49:10.518Z,0
2022-08-22T19:54:13.363Z,0
2022-08-22T19:59:10.568Z,0
2022-08-22T20:04:10.498Z,0
2022-08-22T20:09:10.471Z,0
2022-08-22T20:14:10.516Z,0
2022-08-22T20:19:10.894Z,0
2022-08-22T20:24:10.504Z,0
2022-08-22T20:29:10.644Z,0
2022-08-22T20:34:10.520Z,0
2022-08-22T20:39:10.492Z,0
2022-08-22T20:44:10.492Z,0
2022-08-22T20:49:10.546Z,0
2022-08-22T20:54:10.561Z,0
2022-08-22T20:59:10.583Z,0
2022-08-22T21:04:10.547Z,0
2022-08-22T21:09:10.568Z,0
2022-08-22T21:14:10.527Z,0
2022-08-22T21:19:10.552Z,0
2022-08-22T21:24:10.539Z,0
2022-08-22T21:29:10.504Z,0
2022-08-22T21:34:10.531Z,0
2022-08-22T21:39:10.521Z,0
2022-08-22T21:44:10.532Z,0
2022-08-22T21:49:10.528Z,0
2022-08-22T21:54:18.137Z,0
2022-08-22T21:59:12.488Z,0
2022-08-22T22:04:10.541Z,0
2022-08-22T22:09:14.564Z,0
2022-08-22T22:14:10.579Z,0
2022-08-22T22:19:10.542Z,0
2022-08-22T22:24:11.773Z,0
2022-08-22T22:29:10.555Z,0
2022-08-22T22:34:10.554Z,0
2022-08-22T22:39:10.531Z,0
2022-08-22T22:44:10.561Z,0
2022-08-22T22:49:10.561Z,0
2022-08-22T22:54:11.231Z,0
2022-08-22T22:59:13.293Z,0
2022-08-22T23:04:10.593Z,0
2022-08-22T23:09:10.587Z,0
2022-08-22T23:14:10.537Z,0
2022-08-22T23:19:10.572Z,0
2022-08-22T23:24:10.585Z,0
2022-08-22T23:29:10.656Z,0
2022-08-22T23:34:10.557Z,0
2022-08-22T23:39:10.591Z,0
2022-08-22T23:44:13.460Z,0
2022-08-22T23:49:10.585Z,0
2022-08-22T23:54:10.574Z,0
2022-08-22T23:59:35.346Z,0
